sensor_id;sensor_type;location;lat;lon;timestamp;temperature;humidity
41547;DHT22;27271;45.412;10.852;2023-12-29T05:01:22;5.70;80.10
41547;DHT22;27271;45.412;10.852;2023-12-29T05:04:44;5.70;89.00
41547;DHT22;27271;45.412;10.852;2023-12-29T05:08:06;5.60;93.50
41547;DHT22;27271;45.412;10.852;2023-12-29T05:11:30;5.60;99.90
41547;DHT22;27271;45.412;10.852;2023-12-29T05:14:52;5.50;94.90
41547;DHT22;27271;45.412;10.852;2023-12-29T05:18:14;5.40;99.90
41547;DHT22;27271;45.412;10.852;2023-12-29T05:21:36;5.40;99.90
41547;DHT22;27271;45.412;10.852;2023-12-29T05:24:59;5.40;99.90
41547;DHT22;27271;45.412;10.852;2023-12-29T05:28:23;5.40;99.90
41547;DHT22;27271;45.412;10.852;2023-12-29T05:31:45;5.50;99.90
41547;DHT22;27271;45.412;10.852;2023-12-29T05:35:07;5.40;99.90
41547;DHT22;27271;45.412;10.852;2023-12-29T05:38:31;5.70;69.00
41547;DHT22;27271;45.412;10.852;2023-12-29T05:41:53;5.70;82.00
41547;DHT22;27271;45.412;10.852;2023-12-29T05:45:16;5.70;84.80
41547;DHT22;27271;45.412;10.852;2023-12-29T05:48:39;6.00;44.00
41547;DHT22;27271;45.412;10.852;2023-12-29T05:52:02;6.00;55.00
41547;DHT22;27271;45.412;10.852;2023-12-29T05:55:24;6.00;62.30
41547;DHT22;27271;45.412;10.852;2023-12-29T05:58:47;6.10;46.30
41547;DHT22;27271;45.412;10.852;2023-12-29T06:02:09;6.20;40.60
41547;DHT22;27271;45.412;10.852;2023-12-29T06:05:32;6.20;29.00
41547;DHT22;27271;45.412;10.852;2023-12-29T06:08:55;6.30;4.20
41547;DHT22;27271;45.412;10.852;2023-12-29T06:12:17;6.40;1.00
41547;DHT22;27271;45.412;10.852;2023-12-29T06:15:39;6.40;1.00
41547;DHT22;27271;45.412;10.852;2023-12-29T06:19:01;6.30;1.00
41547;DHT22;27271;45.412;10.852;2023-12-29T06:22:25;6.20;1.00
41547;DHT22;27271;45.412;10.852;2023-12-29T06:25:48;6.40;1.00
41547;DHT22;27271;45.412;10.852;2023-12-29T06:29:11;6.40;1.00
41547;DHT22;27271;45.412;10.852;2023-12-29T06:32:34;6.20;1.00
41547;DHT22;27271;45.412;10.852;2023-12-29T06:35:59;6.10;1.00
41547;DHT22;27271;45.412;10.852;2023-12-29T06:39:22;6.10;1.00
41547;DHT22;27271;45.412;10.852;2023-12-29T06:42:44;6.10;1.00
41547;DHT22;27271;45.412;10.852;2023-12-29T06:46:07;6.10;1.00
41547;DHT22;27271;45.412;10.852;2023-12-29T06:49:31;6.10;1.00
41547;DHT22;27271;45.412;10.852;2023-12-29T06:52:53;6.10;1.00
41547;DHT22;27271;45.412;10.852;2023-12-29T06:56:16;6.10;1.00
41547;DHT22;27271;45.412;10.852;2023-12-29T06:59:40;6.10;1.00
41547;DHT22;27271;45.412;10.852;2023-12-29T07:03:06;6.10;1.00
41547;DHT22;27271;45.412;10.852;2023-12-29T07:06:28;6.10;1.00
41547;DHT22;27271;45.412;10.852;2023-12-29T07:09:51;6.10;1.00
41547;DHT22;27271;45.412;10.852;2023-12-29T07:13:13;6.10;1.00
41547;DHT22;27271;45.412;10.852;2023-12-29T07:16:35;6.10;1.00
41547;DHT22;27271;45.412;10.852;2023-12-29T07:20:01;6.10;1.00
41547;DHT22;27271;45.412;10.852;2023-12-29T07:23:23;6.20;1.00
41547;DHT22;27271;45.412;10.852;2023-12-29T07:26:45;6.20;1.00
41547;DHT22;27271;45.412;10.852;2023-12-29T07:30:11;6.20;1.00
41547;DHT22;27271;45.412;10.852;2023-12-29T07:33:34;6.30;1.00
41547;DHT22;27271;45.412;10.852;2023-12-29T07:36:56;6.30;1.00
41547;DHT22;27271;45.412;10.852;2023-12-29T07:40:20;6.40;1.00
41547;DHT22;27271;45.412;10.852;2023-12-29T07:43:45;6.40;1.00
41547;DHT22;27271;45.412;10.852;2023-12-29T07:47:07;6.50;1.00
41547;DHT22;27271;45.412;10.852;2023-12-29T07:50:30;6.50;1.00
41547;DHT22;27271;45.412;10.852;2023-12-29T07:53:52;6.50;1.00
41547;DHT22;27271;45.412;10.852;2023-12-29T07:57:17;6.50;1.00
41547;DHT22;27271;45.412;10.852;2023-12-29T08:00:39;6.50;1.00
41547;DHT22;27271;45.412;10.852;2023-12-29T08:04:01;6.50;1.00
41547;DHT22;27271;45.412;10.852;2023-12-29T08:07:24;6.60;1.00
41547;DHT22;27271;45.412;10.852;2023-12-29T08:10:46;6.70;1.00
41547;DHT22;27271;45.412;10.852;2023-12-29T08:14:08;6.70;1.00
41547;DHT22;27271;45.412;10.852;2023-12-29T08:17:30;6.70;1.00
41547;DHT22;27271;45.412;10.852;2023-12-29T08:20:57;6.70;1.00
41547;DHT22;27271;45.412;10.852;2023-12-29T08:24:24;6.70;1.00
41547;DHT22;27271;45.412;10.852;2023-12-29T08:27:47;6.80;1.00
41547;DHT22;27271;45.412;10.852;2023-12-29T08:31:09;6.80;1.00
41547;DHT22;27271;45.412;10.852;2023-12-29T08:34:32;6.90;1.00
41547;DHT22;27271;45.412;10.852;2023-12-29T08:37:56;6.90;1.00
41547;DHT22;27271;45.412;10.852;2023-12-29T08:41:18;6.90;1.00
41547;DHT22;27271;45.412;10.852;2023-12-29T08:44:40;6.90;1.00
41547;DHT22;27271;45.412;10.852;2023-12-29T08:48:03;7.00;1.00
41547;DHT22;27271;45.412;10.852;2023-12-29T08:51:26;7.00;1.00
41547;DHT22;27271;45.412;10.852;2023-12-29T08:54:48;7.10;1.00
41547;DHT22;27271;45.412;10.852;2023-12-29T08:58:12;7.10;1.00
41547;DHT22;27271;45.412;10.852;2023-12-29T09:01:35;7.20;1.00
41547;DHT22;27271;45.412;10.852;2023-12-29T09:04:57;7.30;1.00
41547;DHT22;27271;45.412;10.852;2023-12-29T09:08:19;7.30;1.00
41547;DHT22;27271;45.412;10.852;2023-12-29T09:11:45;7.40;1.00
41547;DHT22;27271;45.412;10.852;2023-12-29T09:15:13;7.40;1.00
41547;DHT22;27271;45.412;10.852;2023-12-29T09:18:46;7.50;1.00
41547;DHT22;27271;45.412;10.852;2023-12-29T09:22:09;7.50;1.00
41547;DHT22;27271;45.412;10.852;2023-12-29T09:25:31;7.50;1.00
41547;DHT22;27271;45.412;10.852;2023-12-29T09:28:54;7.60;1.00
41547;DHT22;27271;45.412;10.852;2023-12-29T09:32:18;7.60;1.00
41547;DHT22;27271;45.412;10.852;2023-12-29T09:35:40;7.70;1.00
41547;DHT22;27271;45.412;10.852;2023-12-29T09:39:02;7.70;1.00
41547;DHT22;27271;45.412;10.852;2023-12-29T09:42:28;7.80;1.00
41547;DHT22;27271;45.412;10.852;2023-12-29T09:45:52;7.90;1.00
41547;DHT22;27271;45.412;10.852;2023-12-29T09:49:16;8.00;1.00
41547;DHT22;27271;45.412;10.852;2023-12-29T09:52:43;8.00;1.00
41547;DHT22;27271;45.412;10.852;2023-12-29T09:56:08;8.00;1.00
41547;DHT22;27271;45.412;10.852;2023-12-29T09:59:34;8.10;1.00
41547;DHT22;27271;45.412;10.852;2023-12-29T10:02:58;8.10;1.00
41547;DHT22;27271;45.412;10.852;2023-12-29T10:06:24;8.10;1.00
41547;DHT22;27271;45.412;10.852;2023-12-29T10:09:48;8.20;1.00
41547;DHT22;27271;45.412;10.852;2023-12-29T10:13:13;8.10;1.00
41547;DHT22;27271;45.412;10.852;2023-12-29T10:16:42;8.20;1.00
41547;DHT22;27271;45.412;10.852;2023-12-29T10:20:28;8.20;1.00
41547;DHT22;27271;45.412;10.852;2023-12-29T10:23:58;8.20;1.00
41547;DHT22;27271;45.412;10.852;2023-12-29T10:27:22;8.30;1.00
41547;DHT22;27271;45.412;10.852;2023-12-29T10:30:44;8.30;1.00
41547;DHT22;27271;45.412;10.852;2023-12-29T10:34:28;8.30;1.00
41547;DHT22;27271;45.412;10.852;2023-12-29T10:37:51;8.30;1.00
41547;DHT22;27271;45.412;10.852;2023-12-29T10:41:14;8.40;1.00
41547;DHT22;27271;45.412;10.852;2023-12-29T10:44:37;8.50;1.00
41547;DHT22;27271;45.412;10.852;2023-12-29T10:48:03;8.50;1.00
41547;DHT22;27271;45.412;10.852;2023-12-29T10:51:28;8.60;1.00
41547;DHT22;27271;45.412;10.852;2023-12-29T10:55:05;8.60;1.00
41547;DHT22;27271;45.412;10.852;2023-12-29T10:58:28;8.70;1.00
41547;DHT22;27271;45.412;10.852;2023-12-29T11:01:52;8.80;1.00
41547;DHT22;27271;45.412;10.852;2023-12-29T11:05:15;8.90;1.00
41547;DHT22;27271;45.412;10.852;2023-12-29T11:08:38;9.00;1.00
41547;DHT22;27271;45.412;10.852;2023-12-29T11:12:02;8.90;1.00
41547;DHT22;27271;45.412;10.852;2023-12-29T11:15:24;9.00;1.00
41547;DHT22;27271;45.412;10.852;2023-12-29T11:18:49;9.00;1.00
41547;DHT22;27271;45.412;10.852;2023-12-29T11:22:14;8.90;1.00
41547;DHT22;27271;45.412;10.852;2023-12-29T11:25:39;8.90;1.00
41547;DHT22;27271;45.412;10.852;2023-12-29T11:29:01;8.80;1.00
41547;DHT22;27271;45.412;10.852;2023-12-29T11:32:47;8.90;1.00
41547;DHT22;27271;45.412;10.852;2023-12-29T11:36:16;8.90;1.00
41547;DHT22;27271;45.412;10.852;2023-12-29T11:40:40;8.90;1.00
41547;DHT22;27271;45.412;10.852;2023-12-29T11:43:56;9.10;1.00
41547;DHT22;27271;45.412;10.852;2023-12-29T11:47:35;9.20;1.00
41547;DHT22;27271;45.412;10.852;2023-12-29T11:51:01;9.10;1.00
41547;DHT22;27271;45.412;10.852;2023-12-29T11:54:26;9.20;1.00
41547;DHT22;27271;45.412;10.852;2023-12-29T11:57:48;9.20;1.00
41547;DHT22;27271;45.412;10.852;2023-12-29T12:01:11;9.20;1.00
41547;DHT22;27271;45.412;10.852;2023-12-29T12:04:43;9.20;1.00
41547;DHT22;27271;45.412;10.852;2023-12-29T12:08:08;9.20;1.00
41547;DHT22;27271;45.412;10.852;2023-12-29T12:14:58;9.20;1.00
41547;DHT22;27271;45.412;10.852;2023-12-29T12:18:20;9.20;1.00
41547;DHT22;27271;45.412;10.852;2023-12-29T12:21:47;9.20;1.00
41547;DHT22;27271;45.412;10.852;2023-12-29T12:25:12;9.40;1.00
41547;DHT22;27271;45.412;10.852;2023-12-29T12:28:35;9.40;1.00
41547;DHT22;27271;45.412;10.852;2023-12-29T12:31:59;9.40;1.00
41547;DHT22;27271;45.412;10.852;2023-12-29T12:35:21;9.40;1.00
41547;DHT22;27271;45.412;10.852;2023-12-29T12:38:55;9.40;1.00
41547;DHT22;27271;45.412;10.852;2023-12-29T12:42:18;9.40;1.00
41547;DHT22;27271;45.412;10.852;2023-12-29T12:45:48;9.40;1.00
41547;DHT22;27271;45.412;10.852;2023-12-29T12:49:14;9.30;1.00
41547;DHT22;27271;45.412;10.852;2023-12-29T12:52:37;9.40;1.00
41547;DHT22;27271;45.412;10.852;2023-12-29T12:55:59;9.40;1.00
41547;DHT22;27271;45.412;10.852;2023-12-29T12:59:22;9.30;1.00
41547;DHT22;27271;45.412;10.852;2023-12-29T13:02:45;9.40;1.00
41547;DHT22;27271;45.412;10.852;2023-12-29T13:06:08;9.50;1.00
41547;DHT22;27271;45.412;10.852;2023-12-29T13:09:31;9.40;1.00
41547;DHT22;27271;45.412;10.852;2023-12-29T13:12:55;9.50;1.00
41547;DHT22;27271;45.412;10.852;2023-12-29T13:16:17;9.30;1.00
41547;DHT22;27271;45.412;10.852;2023-12-29T13:19:40;9.30;1.00
41547;DHT22;27271;45.412;10.852;2023-12-29T13:23:03;9.10;1.00
41547;DHT22;27271;45.412;10.852;2023-12-29T13:26:25;9.20;1.00
41547;DHT22;27271;45.412;10.852;2023-12-29T13:29:48;9.10;1.00
41547;DHT22;27271;45.412;10.852;2023-12-29T13:36:54;9.10;1.00
41547;DHT22;27271;45.412;10.852;2023-12-29T13:40:37;9.10;1.00
41547;DHT22;27271;45.412;10.852;2023-12-29T13:44:01;9.10;1.00
41547;DHT22;27271;45.412;10.852;2023-12-29T13:47:26;9.00;1.00
41547;DHT22;27271;45.412;10.852;2023-12-29T13:50:49;8.90;1.00
41547;DHT22;27271;45.412;10.852;2023-12-29T13:54:11;8.90;1.00
41547;DHT22;27271;45.412;10.852;2023-12-29T13:57:35;8.80;1.00
41547;DHT22;27271;45.412;10.852;2023-12-29T14:00:58;8.70;1.00
41547;DHT22;27271;45.412;10.852;2023-12-29T14:04:21;8.80;1.00
41547;DHT22;27271;45.412;10.852;2023-12-29T14:08:05;8.70;1.00
41547;DHT22;27271;45.412;10.852;2023-12-29T14:11:30;8.70;1.00
41547;DHT22;27271;45.412;10.852;2023-12-29T14:14:53;8.80;1.00
41547;DHT22;27271;45.412;10.852;2023-12-29T14:21:44;8.70;1.00
41547;DHT22;27271;45.412;10.852;2023-12-29T14:25:07;8.70;1.00
41547;DHT22;27271;45.412;10.852;2023-12-29T14:28:30;8.70;1.00
41547;DHT22;27271;45.412;10.852;2023-12-29T14:31:52;8.70;1.00
41547;DHT22;27271;45.412;10.852;2023-12-29T14:35:16;8.50;1.00
41547;DHT22;27271;45.412;10.852;2023-12-29T14:38:38;8.60;1.00
41547;DHT22;27271;45.412;10.852;2023-12-29T14:42:00;8.60;1.00
41547;DHT22;27271;45.412;10.852;2023-12-29T14:45:23;8.60;1.00
41547;DHT22;27271;45.412;10.852;2023-12-29T14:48:45;8.50;1.00
41547;DHT22;27271;45.412;10.852;2023-12-29T14:52:08;8.50;1.00
41547;DHT22;27271;45.412;10.852;2023-12-29T14:55:30;8.50;1.00
41547;DHT22;27271;45.412;10.852;2023-12-29T14:58:53;8.40;1.00
41547;DHT22;27271;45.412;10.852;2023-12-29T15:02:15;8.40;1.00
41547;DHT22;27271;45.412;10.852;2023-12-29T15:05:38;8.40;1.00
41547;DHT22;27271;45.412;10.852;2023-12-29T15:09:00;8.40;1.00
41547;DHT22;27271;45.412;10.852;2023-12-29T15:12:22;8.30;1.50
41547;DHT22;27271;45.412;10.852;2023-12-29T15:15:45;8.30;1.00
41547;DHT22;27271;45.412;10.852;2023-12-29T15:19:08;8.30;1.10
41547;DHT22;27271;45.412;10.852;2023-12-29T15:22:31;8.30;2.50
41547;DHT22;27271;45.412;10.852;2023-12-29T15:25:54;8.20;8.30
41547;DHT22;27271;45.412;10.852;2023-12-29T15:29:16;8.20;13.90
41547;DHT22;27271;45.412;10.852;2023-12-29T15:32:38;8.10;46.10
41547;DHT22;27271;45.412;10.852;2023-12-29T15:36:00;8.00;51.30
41547;DHT22;27271;45.412;10.852;2023-12-29T15:39:22;8.10;22.70
41547;DHT22;27271;45.412;10.852;2023-12-29T15:42:45;8.00;36.10
41547;DHT22;27271;45.412;10.852;2023-12-29T15:46:18;8.10;25.90
41547;DHT22;27271;45.412;10.852;2023-12-29T15:49:40;8.10;14.00
41547;DHT22;27271;45.412;10.852;2023-12-29T15:53:02;8.10;30.00
41547;DHT22;27271;45.412;10.852;2023-12-29T15:56:26;8.00;41.70
41547;DHT22;27271;45.412;10.852;2023-12-29T15:59:48;8.00;42.10
41547;DHT22;27271;45.412;10.852;2023-12-29T16:03:10;8.10;23.20
41547;DHT22;27271;45.412;10.852;2023-12-29T16:06:32;8.00;42.60
41547;DHT22;27271;45.412;10.852;2023-12-29T16:09:58;7.90;48.20
41547;DHT22;27271;45.412;10.852;2023-12-29T16:13:27;7.90;52.70
41547;DHT22;27271;45.412;10.852;2023-12-29T16:16:49;8.00;40.60
41547;DHT22;27271;45.412;10.852;2023-12-29T16:20:11;7.90;49.30
41547;DHT22;27271;45.412;10.852;2023-12-29T16:23:34;7.90;73.80
41547;DHT22;27271;45.412;10.852;2023-12-29T16:26:56;7.80;84.50
41547;DHT22;27271;45.412;10.852;2023-12-29T16:30:19;7.80;82.30
41547;DHT22;27271;45.412;10.852;2023-12-29T16:33:41;7.80;91.90
41547;DHT22;27271;45.412;10.852;2023-12-29T16:37:04;7.70;99.90
41547;DHT22;27271;45.412;10.852;2023-12-29T16:40:27;7.70;99.90
41547;DHT22;27271;45.412;10.852;2023-12-29T16:43:52;7.70;99.90
41547;DHT22;27271;45.412;10.852;2023-12-29T16:47:15;7.70;99.90
41547;DHT22;27271;45.412;10.852;2023-12-29T16:50:37;7.70;99.90
41547;DHT22;27271;45.412;10.852;2023-12-29T16:53:59;7.70;99.90
41547;DHT22;27271;45.412;10.852;2023-12-29T16:57:24;7.70;99.90
41547;DHT22;27271;45.412;10.852;2023-12-29T17:00:47;7.70;99.90
41547;DHT22;27271;45.412;10.852;2023-12-29T17:04:09;7.80;99.90
41547;DHT22;27271;45.412;10.852;2023-12-29T17:07:35;7.70;99.90
41547;DHT22;27271;45.412;10.852;2023-12-29T17:10:57;7.70;99.90
41547;DHT22;27271;45.412;10.852;2023-12-29T17:14:22;7.60;99.90
41547;DHT22;27271;45.412;10.852;2023-12-29T17:17:45;7.60;99.90
41547;DHT22;27271;45.412;10.852;2023-12-29T17:21:11;7.70;99.90
41547;DHT22;27271;45.412;10.852;2023-12-29T17:24:36;7.60;99.90
41547;DHT22;27271;45.412;10.852;2023-12-29T17:28:01;7.60;99.90
41547;DHT22;27271;45.412;10.852;2023-12-29T17:31:23;7.50;99.90
41547;DHT22;27271;45.412;10.852;2023-12-29T17:34:45;7.50;99.90
41547;DHT22;27271;45.412;10.852;2023-12-29T17:38:08;7.50;99.90
41547;DHT22;27271;45.412;10.852;2023-12-29T17:41:30;7.50;99.90
41547;DHT22;27271;45.412;10.852;2023-12-29T17:44:52;7.50;99.90
41547;DHT22;27271;45.412;10.852;2023-12-29T17:48:14;7.50;99.90
41547;DHT22;27271;45.412;10.852;2023-12-29T17:51:37;7.50;99.90
41547;DHT22;27271;45.412;10.852;2023-12-29T17:54:59;7.60;99.90
41547;DHT22;27271;45.412;10.852;2023-12-29T17:58:21;7.60;99.90
41547;DHT22;27271;45.412;10.852;2023-12-29T18:01:43;7.60;99.90
41547;DHT22;27271;45.412;10.852;2023-12-29T18:05:06;7.70;99.90
41547;DHT22;27271;45.412;10.852;2023-12-29T18:08:29;7.70;99.90
41547;DHT22;27271;45.412;10.852;2023-12-29T18:11:52;7.70;99.90
41547;DHT22;27271;45.412;10.852;2023-12-29T18:15:15;7.70;99.90
41547;DHT22;27271;45.412;10.852;2023-12-29T18:18:43;7.70;99.90
41547;DHT22;27271;45.412;10.852;2023-12-29T18:22:07;7.70;99.90
41547;DHT22;27271;45.412;10.852;2023-12-29T18:25:30;7.70;99.90
41547;DHT22;27271;45.412;10.852;2023-12-29T18:28:52;7.60;99.90
41547;DHT22;27271;45.412;10.852;2023-12-29T18:32:14;7.70;99.90
41547;DHT22;27271;45.412;10.852;2023-12-29T18:35:43;7.60;99.90
41547;DHT22;27271;45.412;10.852;2023-12-29T18:39:06;7.70;99.90
41547;DHT22;27271;45.412;10.852;2023-12-29T18:42:28;7.90;94.40
41547;DHT22;27271;45.412;10.852;2023-12-29T18:45:51;7.80;99.60
41547;DHT22;27271;45.412;10.852;2023-12-29T18:49:13;7.70;99.90
41547;DHT22;27271;45.412;10.852;2023-12-29T18:52:38;7.70;99.90
41547;DHT22;27271;45.412;10.852;2023-12-29T18:56:05;7.70;99.90
41547;DHT22;27271;45.412;10.852;2023-12-29T18:59:27;7.60;99.90
41547;DHT22;27271;45.412;10.852;2023-12-29T19:02:50;7.70;99.90
41547;DHT22;27271;45.412;10.852;2023-12-29T19:06:12;7.60;99.90
41547;DHT22;27271;45.412;10.852;2023-12-29T19:09:47;7.60;99.90
41547;DHT22;27271;45.412;10.852;2023-12-29T19:13:09;7.60;99.90
41547;DHT22;27271;45.412;10.852;2023-12-29T19:16:32;7.60;99.90
41547;DHT22;27271;45.412;10.852;2023-12-29T19:19:54;7.50;99.90
41547;DHT22;27271;45.412;10.852;2023-12-29T19:23:16;7.50;99.90
41547;DHT22;27271;45.412;10.852;2023-12-29T19:26:38;7.50;99.90
41547;DHT22;27271;45.412;10.852;2023-12-29T19:30:00;7.60;99.90
41547;DHT22;27271;45.412;10.852;2023-12-29T19:33:23;7.50;99.90
41547;DHT22;27271;45.412;10.852;2023-12-29T19:36:45;7.50;99.90
41547;DHT22;27271;45.412;10.852;2023-12-29T19:40:11;7.50;99.90
41547;DHT22;27271;45.412;10.852;2023-12-29T19:43:36;7.60;99.90
41547;DHT22;27271;45.412;10.852;2023-12-29T19:46:58;7.60;99.90
41547;DHT22;27271;45.412;10.852;2023-12-29T19:50:21;7.60;99.90
41547;DHT22;27271;45.412;10.852;2023-12-29T19:53:43;7.50;99.90
41547;DHT22;27271;45.412;10.852;2023-12-29T19:57:05;7.50;99.90
41547;DHT22;27271;45.412;10.852;2023-12-29T20:00:28;7.50;99.90
41547;DHT22;27271;45.412;10.852;2023-12-29T20:03:50;7.50;99.90
41547;DHT22;27271;45.412;10.852;2023-12-29T20:07:13;7.60;99.90
41547;DHT22;27271;45.412;10.852;2023-12-29T20:10:39;7.60;99.90
41547;DHT22;27271;45.412;10.852;2023-12-29T20:14:04;7.60;99.90
41547;DHT22;27271;45.412;10.852;2023-12-29T20:17:29;7.50;99.90
41547;DHT22;27271;45.412;10.852;2023-12-29T20:20:51;7.50;99.90
41547;DHT22;27271;45.412;10.852;2023-12-29T20:24:14;7.50;99.90
41547;DHT22;27271;45.412;10.852;2023-12-29T20:27:37;7.40;99.90
41547;DHT22;27271;45.412;10.852;2023-12-29T20:31:01;7.50;99.90
41547;DHT22;27271;45.412;10.852;2023-12-29T20:34:24;7.40;99.90
41547;DHT22;27271;45.412;10.852;2023-12-29T20:37:46;7.40;99.90
41547;DHT22;27271;45.412;10.852;2023-12-29T20:41:10;7.40;99.90
41547;DHT22;27271;45.412;10.852;2023-12-29T20:44:32;7.30;99.90
41547;DHT22;27271;45.412;10.852;2023-12-29T20:47:54;7.30;99.90
41547;DHT22;27271;45.412;10.852;2023-12-29T20:51:17;7.20;99.90
41547;DHT22;27271;45.412;10.852;2023-12-29T20:54:43;7.20;99.90
41547;DHT22;27271;45.412;10.852;2023-12-29T20:58:06;7.20;99.90
41547;DHT22;27271;45.412;10.852;2023-12-29T21:01:28;7.30;99.90
41547;DHT22;27271;45.412;10.852;2023-12-29T21:04:51;7.20;99.90
41547;DHT22;27271;45.412;10.852;2023-12-29T21:08:13;7.20;99.90
41547;DHT22;27271;45.412;10.852;2023-12-29T21:11:35;7.20;99.90
41547;DHT22;27271;45.412;10.852;2023-12-29T21:14:58;7.20;99.90
41547;DHT22;27271;45.412;10.852;2023-12-29T21:18:21;7.20;99.90
41547;DHT22;27271;45.412;10.852;2023-12-29T21:21:44;7.20;99.90
41547;DHT22;27271;45.412;10.852;2023-12-29T21:25:10;7.20;99.90
41547;DHT22;27271;45.412;10.852;2023-12-29T21:28:32;7.20;99.90
41547;DHT22;27271;45.412;10.852;2023-12-29T21:31:57;7.20;48.80
41547;DHT22;27271;45.412;10.852;2023-12-29T21:35:20;7.20;87.50
41547;DHT22;27271;45.412;10.852;2023-12-29T21:38:49;7.20;83.00
41547;DHT22;27271;45.412;10.852;2023-12-29T21:42:11;7.20;83.10
41547;DHT22;27271;45.412;10.852;2023-12-29T21:45:35;7.20;1.00
41547;DHT22;27271;45.412;10.852;2023-12-29T21:48:57;7.20;1.00
41547;DHT22;27271;45.412;10.852;2023-12-29T21:52:20;7.20;12.40
41547;DHT22;27271;45.412;10.852;2023-12-29T21:55:43;7.30;1.00
41547;DHT22;27271;45.412;10.852;2023-12-29T21:59:05;7.20;1.00
41547;DHT22;27271;45.412;10.852;2023-12-29T22:02:29;7.30;1.00
41547;DHT22;27271;45.412;10.852;2023-12-29T22:05:53;7.30;1.00
41547;DHT22;27271;45.412;10.852;2023-12-29T22:09:16;7.30;1.50
41547;DHT22;27271;45.412;10.852;2023-12-29T22:12:39;7.30;16.70
41547;DHT22;27271;45.412;10.852;2023-12-29T22:16:01;7.30;21.50
41547;DHT22;27271;45.412;10.852;2023-12-29T22:19:24;7.30;23.90
41547;DHT22;27271;45.412;10.852;2023-12-29T22:22:51;7.20;60.40
41547;DHT22;27271;45.412;10.852;2023-12-29T22:26:17;7.30;59.10
41547;DHT22;27271;45.412;10.852;2023-12-29T22:29:41;7.30;79.00
41547;DHT22;27271;45.412;10.852;2023-12-29T22:33:04;7.30;91.40
41547;DHT22;27271;45.412;10.852;2023-12-29T22:36:27;7.30;94.40
41547;DHT22;27271;45.412;10.852;2023-12-29T22:39:49;7.30;99.90
41547;DHT22;27271;45.412;10.852;2023-12-29T22:43:11;7.40;84.60
41547;DHT22;27271;45.412;10.852;2023-12-29T22:46:34;7.40;90.20
41547;DHT22;27271;45.412;10.852;2023-12-29T22:49:56;7.30;89.10
41547;DHT22;27271;45.412;10.852;2023-12-29T22:53:18;7.30;92.30
41547;DHT22;27271;45.412;10.852;2023-12-29T22:56:41;7.30;44.30
41547;DHT22;27271;45.412;10.852;2023-12-29T23:00:05;7.30;41.90
41547;DHT22;27271;45.412;10.852;2023-12-29T23:03:31;7.40;14.90
41547;DHT22;27271;45.412;10.852;2023-12-29T23:06:54;7.50;6.00
41547;DHT22;27271;45.412;10.852;2023-12-29T23:10:16;7.60;1.00
41547;DHT22;27271;45.412;10.852;2023-12-29T23:13:43;7.50;17.90
41547;DHT22;27271;45.412;10.852;2023-12-29T23:17:10;7.40;13.20
41547;DHT22;27271;45.412;10.852;2023-12-29T23:20:32;7.30;15.40
41547;DHT22;27271;45.412;10.852;2023-12-29T23:23:55;7.30;12.70
41547;DHT22;27271;45.412;10.852;2023-12-29T23:27:17;7.20;25.10
